This is the latest recevied weather packets stored in our database for station/object N7TUG. If no packets are shown the sender has not sent any weather packets the latest 10 day(s).
| Time | Temp. | Humidity | Pressure | Rain* | Wind** | Luminosity | Snow |
|---|---|---|---|---|---|---|---|
| 1777736714 | 13.33° C | 85% | 1016.7 hPa | 0 mm | - | 136 W/m² | - |
| 1777721115 | 11.67° C | 87% | 1017.1 hPa | 0 mm | - | 18 W/m² | - |
| 1777718715 | 12.78° C | 83% | 1016.5 hPa | 0 mm | - | 18 W/m² | - |
| 1777712715 | 13.89° C | 76% | 1016.4 hPa | 0 mm | - | 18 W/m² | - |
| 1777710315 | 14.44° C | 74% | 1016.3 hPa | 0 mm | - | 18 W/m² | - |
| 1777707336 | 15.56° C | 69% | 1016.2 hPa | 0 mm | - | 18 W/m² | - |
| 1777704335 | 16.11° C | 70% | 1015.9 hPa | 0 mm | - | 18 W/m² | - |
| 1777703715 | 15.56° C | 71% | 1015.8 hPa | 0 mm | - | 18 W/m² | - |
| 1777703115 | 15.56° C | 73% | 1015.9 hPa | 0 mm | - | 18 W/m² | - |
| 1777701315 | 14.44° C | 76% | 1015.7 hPa | 0 mm | - | 18 W/m² | - |
| 1777698915 | 16.11° C | 71% | 1015.4 hPa | 0 mm | - | 18 W/m² | - |
| 1777697115 | 16.67° C | 70% | 1015.2 hPa | 0 mm | - | 18 W/m² | - |
| 1777695935 | 17.22° C | 67% | 1014.9 hPa | 0 mm | - | 18 W/m² | - |
| 1777692915 | 18.89° C | 62% | 1014.6 hPa | 0 mm | - | 19 W/m² | - |
| 1777691115 | 18.33° C | 61% | 1014.2 hPa | 0 mm | - | 27 W/m² | - |
| 1777689914 | 18.89° C | 64% | 1014.1 hPa | 0 mm | - | 32 W/m² | - |
| 1777685115 | 18.33° C | 68% | 1014.1 hPa | 0 mm | - | 117 W/m² | - |
| 1777682715 | 18.33° C | 68% | 1014 hPa | 0 mm | - | 200 W/m² | - |
| 1777679735 | 19.44° C | 66% | 1014 hPa | 0 mm | - | 507 W/m² | - |
| 1777679115 | 18.89° C | 66% | 1014 hPa | 0 mm | - | 495 W/m² | - |
| 1777677915 | 18.89° C | 65% | 1014.2 hPa | 0 mm | - | 504 W/m² | - |
| 1777677315 | 18.33° C | 65% | 1014.3 hPa | 0 mm | - | 466 W/m² | - |
| 1777675515 | 18.33° C | 67% | 1014.7 hPa | 0 mm | - | 595 W/m² | - |
| 1777673115 | 18.33° C | 68% | 1015 hPa | 0 mm | - | 627 W/m² | - |
| 1777672516 | 18.33° C | 68% | 1015 hPa | 0 mm | - | 731 W/m² | - |
* Rain latest hour (hover to see other rain measurements)
** Current wind speed in m/s (hover to see current wind gust speed)